createdAt,value
2019-02-25T00:00:20.658Z,72.50
2019-02-25T00:01:20.660Z,72.88
2019-02-25T00:02:24.157Z,73.16
2019-02-25T00:03:21.162Z,74.11
2019-02-25T00:04:21.158Z,74.77
2019-02-25T00:05:42.157Z,74.02
2019-02-25T00:06:24.591Z,74.02
2019-02-25T00:07:46.657Z,73.26
2019-02-25T00:08:21.657Z,73.35
2019-02-25T00:09:21.657Z,73.73
2019-02-25T00:10:22.156Z,74.49
2019-02-25T00:11:43.157Z,74.40
2019-02-25T00:12:22.157Z,74.21
2019-02-25T00:13:26.660Z,74.96
2019-02-25T00:14:22.658Z,75.34
2019-02-25T00:15:22.657Z,75.05
2019-02-25T00:16:22.661Z,74.96
2019-02-25T00:17:22.659Z,74.30
2019-02-25T00:18:24.097Z,74.02
2019-02-25T00:19:26.156Z,73.64
2019-02-25T00:21:54.503Z,73.16
2019-02-25T00:22:54.510Z,74.40
2019-02-25T00:23:54.508Z,74.49
2019-02-25T00:24:58.008Z,74.49
2019-02-25T00:26:16.010Z,75.05
2019-02-25T00:26:55.012Z,74.40
2019-02-25T00:27:55.008Z,74.02
2019-02-25T00:29:16.508Z,73.26
2019-02-25T00:29:59.007Z,73.07
2019-02-25T00:30:55.507Z,72.97
2019-02-25T00:31:55.507Z,72.78
2019-02-25T00:32:56.007Z,72.88
2019-02-25T00:33:56.006Z,72.97
2019-02-25T00:34:56.007Z,72.60
2019-02-25T00:36:00.033Z,73.07
2019-02-25T00:36:56.506Z,72.78
2019-02-25T00:37:56.511Z,73.16
2019-02-25T00:38:56.506Z,73.07
2019-02-25T00:39:56.506Z,73.45
2019-02-25T00:40:59.008Z,72.97
2019-02-25T00:42:00.006Z,72.97
2019-02-25T00:42:57.006Z,72.97
2019-02-25T00:43:57.006Z,73.26
2019-02-25T00:45:18.506Z,73.35
2019-02-25T00:45:57.508Z,73.45
2019-02-25T00:47:01.511Z,73.45
2019-02-25T00:47:57.506Z,73.16
2019-02-25T00:48:58.006Z,72.50
2019-02-25T00:49:58.013Z,72.60
2019-02-25T00:50:58.028Z,72.88
2019-02-25T00:51:58.007Z,73.07
2019-02-25T00:53:23.005Z,72.97
2019-02-25T00:53:58.507Z,73.54
2019-02-25T00:54:58.507Z,73.73
2019-02-25T00:55:58.504Z,73.07
2019-02-25T00:56:59.006Z,73.16
2019-02-25T00:57:59.004Z,73.07
2019-02-25T00:59:23.508Z,73.16
2019-02-25T00:59:59.004Z,73.45
2019-02-25T01:00:59.504Z,73.45
2019-02-25T01:01:59.504Z,73.07
2019-02-25T01:02:59.507Z,73.07
2019-02-25T01:04:24.504Z,72.88
2019-02-25T01:05:00.002Z,72.78
2019-02-25T01:06:21.005Z,72.50
2019-02-25T01:07:00.004Z,72.60
2019-02-25T01:08:21.003Z,72.88
2019-02-25T01:09:25.018Z,72.60
2019-02-25T01:10:21.503Z,72.41
2019-02-25T01:11:00.503Z,72.97
2019-02-25T01:12:00.504Z,72.60
2019-02-25T01:13:01.002Z,73.26
2019-02-25T01:14:01.002Z,72.97
2019-02-25T01:15:04.509Z,73.26
2019-02-25T01:16:01.003Z,73.73
2019-02-25T01:17:01.502Z,74.02
2019-02-25T01:18:01.502Z,74.77
2019-02-25T01:19:02.438Z,75.05
2019-02-25T01:20:04.508Z,75.15
2019-02-25T01:21:01.517Z,74.77
2019-02-25T01:22:02.001Z,74.49
2019-02-25T01:23:02.010Z,74.11
2019-02-25T01:24:01.999Z,74.40
2019-02-25T01:25:06.001Z,73.83
2019-02-25T01:26:02.505Z,73.64
2019-02-25T01:27:15.911Z,73.83
2019-02-25T01:29:55.472Z,73.83
2019-02-25T01:30:38.483Z,73.64
2019-02-25T01:31:34.480Z,73.35
2019-02-25T01:32:34.981Z,73.73
2019-02-25T01:33:34.992Z,73.98
2019-02-25T01:34:34.318Z,74.02
2019-02-25T01:35:34.979Z,73.92
2019-02-25T01:36:38.480Z,73.35
2019-02-25T01:37:37.481Z,73.35
2019-02-25T01:38:35.479Z,73.16
2019-02-25T01:39:35.479Z,73.79
2019-02-25T01:40:35.477Z,73.60
2019-02-25T01:41:39.481Z,73.50
2019-02-25T01:42:35.982Z,73.69
2019-02-25T01:43:35.978Z,73.83
2019-02-25T01:44:35.978Z,73.69
2019-02-25T01:45:36.481Z,73.60
2019-02-25T01:46:39.989Z,73.98
2019-02-25T01:47:36.478Z,74.93
2019-02-25T01:48:36.477Z,74.55
2019-02-25T01:49:36.978Z,74.83
2019-02-25T01:50:36.979Z,75.43
2019-02-25T01:51:41.931Z,74.96
2019-02-25T01:52:36.987Z,74.87
2019-02-25T01:53:36.978Z,74.21
2019-02-25T01:54:37.489Z,73.73
2019-02-25T01:55:37.480Z,73.35
2019-02-25T01:56:38.411Z,73.64
2019-02-25T01:58:03.977Z,72.97
2019-02-25T01:58:37.072Z,72.94
2019-02-25T01:59:37.976Z,72.56
2019-02-25T02:00:37.977Z,73.13
2019-02-25T02:01:37.981Z,73.13
2019-02-25T02:02:41.980Z,73.13
2019-02-25T02:03:38.488Z,73.03
2019-02-25T02:04:38.476Z,73.41
2019-02-25T02:05:38.486Z,73.98
2019-02-25T02:06:38.982Z,74.45
2019-02-25T02:07:38.975Z,74.17
2019-02-25T02:08:42.975Z,74.17
2019-02-25T02:09:38.975Z,73.88
2019-02-25T02:10:39.477Z,74.07
2019-02-25T02:11:39.474Z,73.88
2019-02-25T02:12:39.474Z,73.79
2019-02-25T02:13:39.475Z,73.98
2019-02-25T02:14:42.974Z,74.83
2019-02-25T02:15:39.974Z,74.93
2019-02-25T02:16:41.442Z,75.49
2019-02-25T02:17:39.975Z,75.59
2019-02-25T02:18:40.474Z,74.83
2019-02-25T02:19:43.974Z,75.12
2019-02-25T02:20:40.474Z,74.93
2019-02-25T02:21:40.486Z,74.74
2019-02-25T02:22:40.061Z,75.21
2019-02-25T02:25:15.801Z,74.74
2019-02-25T02:26:33.295Z,74.83
2019-02-25T02:27:13.736Z,74.64
2019-02-25T02:28:36.234Z,74.45
2019-02-25T02:29:33.795Z,74.36
2019-02-25T02:30:12.801Z,75.12
2019-02-25T02:31:16.797Z,75.40
2019-02-25T02:32:12.796Z,74.93
2019-02-25T02:33:34.294Z,74.83
2019-02-25T02:34:34.295Z,74.36
2019-02-25T02:35:13.304Z,73.88
2019-02-25T02:36:14.229Z,74.07
2019-02-25T02:37:16.798Z,74.64
2019-02-25T02:40:06.143Z,75.87
2019-02-25T02:40:45.153Z,75.68
2019-02-25T02:41:45.650Z,75.68
2019-02-25T02:42:49.664Z,74.93
2019-02-25T02:43:45.673Z,75.02
2019-02-25T02:44:45.649Z,74.45
2019-02-25T02:45:46.150Z,74.64
2019-02-25T02:46:46.159Z,74.45
2019-02-25T02:47:46.156Z,74.45
2019-02-25T02:48:49.648Z,74.36
2019-02-25T02:49:48.649Z,75.02
2019-02-25T02:50:46.648Z,75.40
2019-02-25T02:51:46.648Z,75.96
2019-02-25T02:52:46.655Z,75.12
2019-02-25T02:53:50.646Z,76.06
2019-02-25T02:54:47.145Z,76.06
2019-02-25T02:55:47.147Z,75.96
2019-02-25T02:56:47.148Z,75.78
2019-02-25T02:57:47.647Z,75.31
2019-02-25T02:58:50.648Z,76.15
2019-02-25T02:59:47.647Z,75.68
2019-02-25T03:00:47.646Z,75.87
2019-02-25T03:01:49.113Z,75.12
2019-02-25T03:02:48.170Z,75.40
2019-02-25T03:03:52.145Z,75.12
2019-02-25T03:04:48.146Z,74.83
2019-02-25T03:05:48.145Z,75.40
2019-02-25T03:06:48.645Z,76.15
2019-02-25T03:07:47.866Z,75.68
2019-02-25T03:08:48.646Z,75.12
2019-02-25T03:09:51.645Z,74.93
2019-02-25T03:10:48.649Z,74.83
2019-02-25T03:11:49.146Z,74.45
2019-02-25T03:12:49.150Z,74.36
2019-02-25T03:13:49.143Z,73.98
2019-02-25T03:14:53.143Z,74.07
2019-02-25T03:15:49.645Z,73.98
2019-02-25T03:16:49.645Z,74.64
2019-02-25T03:18:10.652Z,74.36
2019-02-25T03:18:49.651Z,74.83
2019-02-25T03:19:50.144Z,75.12
2019-02-25T03:20:54.157Z,74.74
2019-02-25T03:21:50.145Z,74.93
2019-02-25T03:22:50.143Z,75.40
2019-02-25T03:23:50.650Z,75.87
2019-02-25T03:24:50.726Z,76.06
2019-02-25T03:25:50.646Z,75.40
2019-02-25T03:27:15.149Z,75.02
2019-02-25T03:27:51.149Z,74.55
2019-02-25T03:28:51.143Z,74.26
2019-02-25T03:29:51.143Z,73.98
2019-02-25T03:30:51.144Z,74.45
2019-02-25T03:31:55.157Z,74.45
2019-02-25T03:32:51.657Z,74.64
2019-02-25T03:33:51.646Z,74.93
2019-02-25T03:34:51.650Z,75.68
2019-02-25T03:35:52.142Z,75.78
2019-02-25T03:36:52.141Z,75.78
2019-02-25T03:38:17.150Z,75.68
2019-02-25T03:38:52.149Z,75.49
2019-02-25T03:39:52.642Z,75.02
2019-02-25T03:40:52.641Z,74.93
2019-02-25T03:41:52.642Z,74.83
2019-02-25T03:42:52.647Z,74.93
2019-02-25T03:44:17.139Z,74.93
2019-02-25T03:44:53.141Z,75.02
2019-02-25T03:45:53.140Z,75.02
2019-02-25T03:46:53.141Z,75.02
2019-02-25T03:47:53.646Z,74.74
2019-02-25T03:48:57.140Z,74.93
2019-02-25T03:49:53.640Z,75.40
2019-02-25T03:50:53.639Z,74.83
2019-02-25T03:51:54.140Z,75.21
2019-02-25T03:52:55.074Z,75.49
2019-02-25T03:53:54.140Z,75.68
2019-02-25T03:54:58.139Z,75.87
2019-02-25T03:55:54.646Z,75.87
2019-02-25T03:56:54.639Z,75.78
2019-02-25T03:57:54.641Z,75.40
2019-02-25T03:59:15.641Z,74.83
2019-02-25T04:00:19.653Z,74.93
2019-02-25T04:00:57.139Z,75.21
2019-02-25T04:01:55.138Z,74.93
2019-02-25T04:02:55.140Z,74.83
2019-02-25T04:04:16.641Z,75.49
2019-02-25T04:04:55.658Z,76.06
2019-02-25T04:05:59.638Z,75.49
2019-02-25T04:06:55.643Z,75.59
2019-02-25T04:09:27.355Z,74.93
2019-02-25T04:10:27.413Z,75.49
2019-02-25T04:11:53.861Z,75.87
2019-02-25T04:12:27.869Z,76.44
2019-02-25T04:13:27.864Z,75.59
2019-02-25T04:14:27.867Z,75.78
2019-02-25T04:15:27.862Z,75.59
2019-02-25T04:16:32.361Z,74.93
2019-02-25T04:17:28.373Z,75.12
2019-02-25T04:18:28.370Z,74.93
2019-02-25T04:19:28.362Z,74.74
2019-02-25T04:20:28.870Z,75.12
2019-02-25T04:21:28.861Z,75.02
2019-02-25T04:22:32.361Z,75.59
2019-02-25T04:23:28.860Z,75.49
2019-02-25T04:24:29.361Z,75.68
2019-02-25T04:25:29.404Z,75.59
2019-02-25T04:26:29.371Z,75.78
2019-02-25T04:27:33.359Z,75.87
2019-02-25T04:28:50.867Z,75.31
2019-02-25T04:29:29.860Z,75.59
2019-02-25T04:30:29.859Z,75.96
2019-02-25T04:31:29.859Z,75.83
2019-02-25T04:32:32.363Z,75.96
2019-02-25T04:33:54.359Z,75.96
2019-02-25T04:34:30.366Z,75.49
2019-02-25T04:35:30.359Z,75.40
2019-02-25T04:36:30.859Z,74.93
2019-02-25T04:37:30.866Z,74.64
2019-02-25T04:38:34.358Z,75.02
2019-02-25T04:39:30.859Z,75.21
2019-02-25T04:40:31.363Z,75.68
2019-02-25T04:41:52.358Z,74.93
2019-02-25T04:42:31.359Z,74.93
2019-02-25T04:43:34.855Z,74.83
2019-02-25T04:44:31.858Z,73.79
2019-02-25T04:45:31.858Z,74.45
2019-02-25T04:46:31.855Z,74.55
2019-02-25T04:47:31.857Z,74.83
2019-02-25T04:48:35.858Z,75.31
2019-02-25T04:49:32.357Z,75.93
2019-02-25T04:50:53.357Z,75.64
2019-02-25T04:51:32.357Z,76.12
2019-02-25T04:52:32.856Z,76.21
2019-02-25T04:53:32.857Z,75.93
2019-02-25T04:54:36.859Z,75.93
2019-02-25T04:55:32.856Z,76.40
2019-02-25T04:56:33.356Z,77.15
2019-02-25T04:57:34.290Z,76.97
2019-02-25T04:58:33.354Z,77.15
2019-02-25T04:59:33.355Z,76.31
2019-02-25T05:00:42.860Z,77.15
2019-02-25T05:01:54.856Z,76.02
2019-02-25T05:02:33.911Z,76.21
2019-02-25T05:03:33.854Z,76.31
2019-02-25T05:04:34.399Z,76.97
2019-02-25T05:05:37.858Z,76.21
2019-02-25T05:06:34.356Z,76.12
2019-02-25T05:07:34.369Z,76.12
2019-02-25T05:08:34.854Z,75.83
2019-02-25T05:09:34.852Z,75.45
2019-02-25T05:10:34.858Z,76.31
2019-02-25T05:11:37.863Z,76.12
2019-02-25T05:12:34.854Z,76.21
2019-02-25T05:13:35.369Z,76.02
2019-02-25T05:14:35.353Z,76.59
2019-02-25T05:15:58.787Z,76.40
2019-02-25T05:16:40.019Z,76.50
2019-02-25T05:17:56.854Z,77.06
2019-02-25T05:18:37.291Z,77.34
2019-02-25T05:19:35.853Z,77.34
2019-02-25T05:20:35.855Z,78.20
2019-02-25T05:21:36.352Z,77.63
2019-02-25T05:22:40.358Z,77.25
2019-02-25T05:23:36.353Z,76.97
2019-02-25T05:24:36.355Z,75.83
2019-02-25T05:25:36.852Z,76.12
2019-02-25T05:26:36.851Z,75.74
2019-02-25T05:27:36.852Z,75.83
2019-02-25T05:28:40.354Z,75.64
2019-02-25T05:29:37.452Z,75.93
2019-02-25T05:30:37.350Z,76.12
2019-02-25T05:31:37.351Z,76.59
2019-02-25T05:32:37.351Z,76.31
2019-02-25T05:33:41.352Z,76.50
2019-02-25T05:34:37.854Z,76.59
2019-02-25T05:35:39.852Z,76.78
2019-02-25T05:36:37.853Z,76.50
2019-02-25T05:37:38.357Z,76.50
2019-02-25T05:38:38.357Z,76.40
2019-02-25T05:39:43.327Z,76.40
2019-02-25T05:40:38.351Z,76.40
2019-02-25T05:41:38.850Z,76.21
2019-02-25T05:42:38.850Z,76.31
2019-02-25T05:43:38.855Z,76.50
2019-02-25T05:44:38.868Z,76.12
2019-02-25T05:45:42.350Z,76.12
2019-02-25T05:46:39.351Z,76.02
2019-02-25T05:47:39.349Z,76.21
2019-02-25T05:48:39.354Z,75.83
2019-02-25T05:49:39.869Z,76.31
2019-02-25T05:50:43.352Z,76.78
2019-02-25T05:51:39.848Z,76.40
2019-02-25T05:52:39.849Z,76.31
2019-02-25T05:53:40.357Z,76.02
2019-02-25T05:54:40.348Z,75.93
2019-02-25T05:55:40.377Z,76.12
2019-02-25T05:56:44.348Z,76.02
2019-02-25T05:57:40.857Z,76.12
2019-02-25T05:58:40.856Z,76.12
2019-02-25T05:59:40.849Z,76.87
2019-02-25T06:00:40.848Z,76.40
2019-02-25T06:01:41.349Z,76.40
2019-02-25T06:02:44.347Z,77.06
2019-02-25T06:03:41.352Z,77.44
2019-02-25T06:04:41.353Z,77.34
2019-02-25T06:05:41.852Z,77.44
2019-02-25T06:06:42.781Z,77.15
2019-02-25T06:07:45.848Z,77.53
2019-02-25T06:08:41.851Z,76.87
2019-02-25T06:09:42.349Z,77.15
2019-02-25T06:11:03.354Z,77.06
2019-02-25T06:11:42.346Z,77.25
2019-02-25T06:12:45.850Z,76.78
2019-02-25T06:13:42.854Z,76.40
2019-02-25T06:14:42.846Z,76.21
2019-02-25T06:15:42.844Z,76.59
2019-02-25T06:16:42.846Z,76.40
2019-02-25T06:17:46.845Z,76.50
2019-02-25T06:18:43.346Z,76.40
2019-02-25T06:19:43.348Z,76.50
2019-02-25T06:20:43.345Z,76.97
2019-02-25T06:21:43.846Z,77.15
2019-02-25T06:22:43.849Z,77.25
2019-02-25T06:23:47.844Z,77.25
2019-02-25T06:25:04.902Z,77.53
2019-02-25T06:25:44.383Z,77.44
2019-02-25T06:26:46.778Z,77.82
2019-02-25T06:27:44.359Z,77.91
2019-02-25T06:28:44.350Z,77.82
2019-02-25T06:29:47.851Z,77.72
2019-02-25T06:32:16.197Z,77.72
2019-02-25T06:33:16.206Z,77.34
2019-02-25T06:34:16.203Z,76.97
2019-02-25T06:35:41.703Z,77.06
2019-02-25T06:36:16.720Z,77.06
2019-02-25T06:37:16.703Z,77.15
2019-02-25T06:38:16.710Z,77.44
2019-02-25T06:39:17.203Z,77.34
2019-02-25T06:40:20.741Z,77.63
2019-02-25T06:41:17.206Z,77.53
2019-02-25T06:42:17.203Z,77.25
2019-02-25T06:43:17.701Z,77.63
2019-02-25T06:44:17.701Z,77.63
2019-02-25T06:45:17.702Z,78.01
2019-02-25T06:46:21.701Z,77.91
2019-02-25T06:47:18.218Z,77.91
2019-02-25T06:48:18.201Z,77.91
2019-02-25T06:49:18.202Z,77.91
2019-02-25T06:50:17.665Z,77.34
2019-02-25T06:51:18.709Z,77.25
2019-02-25T06:52:20.704Z,77.25
2019-02-25T06:53:18.703Z,77.25
2019-02-25T06:54:18.700Z,77.10
2019-02-25T06:55:18.700Z,76.63
2019-02-25T06:56:19.198Z,76.44
2019-02-25T06:57:22.709Z,76.25
2019-02-25T06:58:19.196Z,76.72
2019-02-25T06:59:19.235Z,76.63
2019-02-25T07:00:20.633Z,76.63
2019-02-25T07:01:19.732Z,76.44
2019-02-25T07:02:50.213Z,76.25
2019-02-25T07:03:19.699Z,75.96
2019-02-25T07:04:34.202Z,76.25
2019-02-25T07:05:20.198Z,75.78
2019-02-25T07:06:41.215Z,75.78
2019-02-25T07:07:20.198Z,75.40
2019-02-25T07:08:24.204Z,75.59
2019-02-25T07:09:20.698Z,75.59
2019-02-25T07:10:20.754Z,76.06
2019-02-25T07:11:20.697Z,76.15
2019-02-25T07:12:20.160Z,76.91
2019-02-25T07:13:21.197Z,76.44
2019-02-25T07:15:58.327Z,75.87
2019-02-25T07:16:57.375Z,75.96
2019-02-25T07:18:17.393Z,75.91
2019-02-25T07:18:56.443Z,76.10
2019-02-25T07:20:21.395Z,76.00
2019-02-25T07:21:17.899Z,75.81
2019-02-25T07:21:56.895Z,75.53
2019-02-25T07:22:56.894Z,75.62
2019-02-25T07:23:56.892Z,76.10
2019-02-25T07:25:21.961Z,76.10
2019-02-25T07:25:57.392Z,75.34
2019-02-25T07:26:56.600Z,75.05
2019-02-25T07:28:18.397Z,75.24
2019-02-25T07:28:57.407Z,74.96
2019-02-25T07:29:57.391Z,75.62
2019-02-25T07:32:33.172Z,75.15
2019-02-25T07:33:33.180Z,74.96
2019-02-25T07:34:33.680Z,74.58
2019-02-25T07:35:54.674Z,74.87
2019-02-25T07:36:37.684Z,74.49
2019-02-25T07:37:33.681Z,73.83
2019-02-25T07:40:04.674Z,73.45
2019-02-25T07:41:11.406Z,73.45
2019-02-25T07:42:08.907Z,72.97
2019-02-25T07:43:28.917Z,72.73
2019-02-25T07:44:26.911Z,73.11
2019-02-25T07:45:11.906Z,72.92
2019-02-25T07:46:07.906Z,73.11
2019-02-25T07:47:31.410Z,73.01
2019-02-25T07:48:07.350Z,73.11
2019-02-25T07:49:06.406Z,72.25
2019-02-25T07:50:06.412Z,72.44
2019-02-25T07:51:06.407Z,71.97
2019-02-25T07:52:31.405Z,71.02
2019-02-25T07:53:06.910Z,71.40
2019-02-25T07:54:07.004Z,70.83
2019-02-25T07:55:06.904Z,70.36
2019-02-25T07:56:08.378Z,70.30
2019-02-25T07:57:07.409Z,70.78
2019-02-25T07:58:11.407Z,71.91
2019-02-25T07:59:07.404Z,71.91
2019-02-25T08:00:07.906Z,71.25
2019-02-25T08:01:07.905Z,70.97
2019-02-25T08:02:07.249Z,70.58
2019-02-25T08:03:07.961Z,70.39
2019-02-25T08:04:18.411Z,70.30
2019-02-25T08:05:08.404Z,71.44
2019-02-25T08:06:08.405Z,71.34
2019-02-25T08:07:08.461Z,71.34
2019-02-25T08:08:29.404Z,71.15
2019-02-25T08:09:33.913Z,71.15
2019-02-25T08:10:08.131Z,71.15
2019-02-25T08:11:08.904Z,71.15
2019-02-25T08:12:08.904Z,71.09
2019-02-25T08:13:30.399Z,71.38
2019-02-25T08:14:09.411Z,70.81
2019-02-25T08:15:13.410Z,70.62
2019-02-25T08:16:09.404Z,70.90
2019-02-25T08:17:08.992Z,70.05
2019-02-25T08:18:09.911Z,69.38
2019-02-25T08:19:09.905Z,69.96
2019-02-25T08:20:09.904Z,69.67
2019-02-25T08:21:34.412Z,69.57
2019-02-25T08:22:31.403Z,69.13
2019-02-25T08:23:31.403Z,69.04
2019-02-25T08:24:10.408Z,68.95
2019-02-25T08:25:31.402Z,68.48
2019-02-25T08:26:35.406Z,68.57
2019-02-25T08:27:10.903Z,68.76
2019-02-25T08:28:32.627Z,68.48
2019-02-25T08:29:31.909Z,67.90
2019-02-25T08:30:11.401Z,67.33
2019-02-25T08:32:46.124Z,67.33
2019-02-25T08:33:46.135Z,66.86
2019-02-25T08:34:46.185Z,67.05
2019-02-25T08:35:46.632Z,66.77
2019-02-25T08:36:50.132Z,67.62
2019-02-25T08:37:46.631Z,67.43
2019-02-25T08:39:07.633Z,66.39
2019-02-25T08:39:47.135Z,66.77
2019-02-25T08:40:47.138Z,66.77
2019-02-25T08:41:47.132Z,66.61
2019-02-25T08:42:51.131Z,66.23
2019-02-25T08:43:47.631Z,66.04
2019-02-25T08:44:47.630Z,65.47
2019-02-25T08:45:47.631Z,65.56
2019-02-25T08:46:47.628Z,65.09
2019-02-25T08:47:48.133Z,65.09
2019-02-25T08:48:51.130Z,65.47
2019-02-25T08:49:48.143Z,65.03
2019-02-25T08:50:48.130Z,65.09
2019-02-25T08:53:19.859Z,65.28
2019-02-25T08:55:55.340Z,64.75
2019-02-25T08:57:16.348Z,65.22
2019-02-25T08:57:55.348Z,64.56
2019-02-25T08:59:18.880Z,64.17
2019-02-25T08:59:59.848Z,64.08
2019-02-25T09:01:01.847Z,62.12
2019-02-25T09:02:16.853Z,61.55
2019-02-25T09:03:16.846Z,63.07
2019-02-25T09:05:31.075Z,61.17
2019-02-25T09:06:27.651Z,60.69
2019-02-25T09:07:48.582Z,60.60
2019-02-25T09:08:27.620Z,62.31
2019-02-25T09:09:30.084Z,62.78
2019-02-25T09:10:52.606Z,62.78
2019-02-25T09:11:28.082Z,61.83
2019-02-25T09:12:28.086Z,61.29
2019-02-25T09:13:28.582Z,60.91
2019-02-25T09:14:28.580Z,61.29
2019-02-25T09:15:28.585Z,61.68
2019-02-25T09:16:32.589Z,61.48
2019-02-25T09:17:50.105Z,60.72
2019-02-25T09:18:29.082Z,60.82
2019-02-25T09:19:29.087Z,60.44
2019-02-25T09:20:29.081Z,60.82
2019-02-25T09:21:54.520Z,60.53
2019-02-25T09:22:29.581Z,60.16
2019-02-25T09:23:29.589Z,59.77
2019-02-25T09:24:29.582Z,60.09
2019-02-25T09:25:29.582Z,60.28
2019-02-25T09:26:55.081Z,59.61
2019-02-25T09:30:32.857Z,59.80
2019-02-25T09:32:03.380Z,59.90
2019-02-25T09:32:32.868Z,59.71
2019-02-25T09:33:38.792Z,59.80
2019-02-25T09:34:33.361Z,60.02
2019-02-25T09:35:33.359Z,59.93
2019-02-25T09:36:33.358Z,59.27
2019-02-25T09:37:37.351Z,59.83
2019-02-25T09:38:33.858Z,58.50
2019-02-25T09:39:33.193Z,58.50
2019-02-25T09:40:33.857Z,58.50
2019-02-25T09:41:33.857Z,57.74
2019-02-25T09:42:38.857Z,57.55
2019-02-25T09:43:34.362Z,57.36
2019-02-25T09:44:33.704Z,57.26
2019-02-25T09:45:34.357Z,57.55
2019-02-25T09:46:34.857Z,56.79
2019-02-25T09:47:34.860Z,57.58
2019-02-25T09:48:38.859Z,57.01
2019-02-25T09:49:34.863Z,57.67
2019-02-25T09:52:06.582Z,56.24
2019-02-25T09:53:07.328Z,56.24
2019-02-25T09:54:10.595Z,55.77
2019-02-25T09:55:28.096Z,55.01
2019-02-25T09:56:07.110Z,55.58
2019-02-25T09:57:07.091Z,55.58
2019-02-25T09:58:07.090Z,55.61
2019-02-25T09:59:32.086Z,54.94
2019-02-25T10:00:08.531Z,55.04
2019-02-25T10:01:08.524Z,54.75
2019-02-25T10:02:07.052Z,54.37
2019-02-25T10:03:29.096Z,54.56
2019-02-25T10:04:08.805Z,53.89
2019-02-25T10:05:10.587Z,52.94
2019-02-25T10:06:08.087Z,52.75
2019-02-25T10:07:08.087Z,53.16
2019-02-25T10:08:10.057Z,54.11
2019-02-25T10:09:08.591Z,53.64
2019-02-25T10:10:12.084Z,53.06
2019-02-25T10:11:08.587Z,52.40
2019-02-25T10:12:09.145Z,51.28
2019-02-25T10:13:09.093Z,50.61
2019-02-25T10:14:09.087Z,50.87
2019-02-25T10:15:13.087Z,51.47
2019-02-25T10:16:09.088Z,50.99
2019-02-25T10:20:16.253Z,49.56
2019-02-25T10:22:43.733Z,48.44
2019-02-25T10:24:04.740Z,48.63
2019-02-25T10:24:43.739Z,48.35
2019-02-25T10:25:47.739Z,47.58
2019-02-25T10:26:44.251Z,47.39
2019-02-25T10:27:44.241Z,46.92
2019-02-25T10:28:44.244Z,47.13
2019-02-25T10:30:07.173Z,46.84
2019-02-25T10:30:52.385Z,46.75
2019-02-25T10:31:48.738Z,47.13
2019-02-25T10:32:44.738Z,46.84
2019-02-25T10:35:16.970Z,46.37
2019-02-25T10:36:16.977Z,46.27
2019-02-25T10:37:20.473Z,47.03
2019-02-25T10:38:17.478Z,47.16
2019-02-25T10:39:17.934Z,47.16
2019-02-25T10:40:21.598Z,46.97
2019-02-25T10:41:19.681Z,47.25
2019-02-25T10:42:21.476Z,46.30
2019-02-25T10:43:17.976Z,46.20
2019-02-25T10:44:17.975Z,45.82
2019-02-25T10:45:17.973Z,45.25
2019-02-25T10:46:18.481Z,44.77
2019-02-25T10:47:19.861Z,44.77
2019-02-25T10:48:23.635Z,44.98
2019-02-25T10:49:18.473Z,44.02
2019-02-25T10:50:18.988Z,44.22
2019-02-25T10:51:18.976Z,44.41
2019-02-25T10:52:18.974Z,44.51
2019-02-25T10:53:20.291Z,43.74
2019-02-25T10:54:23.294Z,43.07
2019-02-25T10:55:19.473Z,43.26
2019-02-25T10:56:21.581Z,42.81
2019-02-25T10:57:21.331Z,42.71
2019-02-25T10:58:19.975Z,42.24
2019-02-25T10:59:23.475Z,40.61
2019-02-25T11:00:19.977Z,39.65
2019-02-25T11:01:22.224Z,38.98
2019-02-25T11:02:49.067Z,39.27
2019-02-25T11:03:21.757Z,39.37
2019-02-25T11:04:44.973Z,39.27
2019-02-25T11:05:21.210Z,37.95
2019-02-25T11:06:20.067Z,36.90
2019-02-25T11:07:20.973Z,34.80
2019-02-25T11:08:20.973Z,34.22
2019-02-25T11:09:24.981Z,33.84
2019-02-25T11:10:22.406Z,31.93
2019-02-25T11:11:23.209Z,31.93
2019-02-25T11:12:23.244Z,31.93
2019-02-25T11:13:21.473Z,30.80
2019-02-25T11:14:21.973Z,30.80
2019-02-25T11:15:29.975Z,31.56
2019-02-25T11:16:21.972Z,31.85
2019-02-25T11:17:22.498Z,33.00
2019-02-25T11:18:24.506Z,33.00
2019-02-25T11:19:24.431Z,32.14
2019-02-25T11:20:22.475Z,32.62
2019-02-25T11:21:46.974Z,31.58
2019-02-25T11:22:22.973Z,31.20
2019-02-25T11:23:22.973Z,31.38
2019-02-25T11:24:43.973Z,30.52
2019-02-25T11:25:24.112Z,30.64
2019-02-25T11:26:47.977Z,30.64
2019-02-25T11:30:26.123Z,29.26
2019-02-25T11:31:30.284Z,28.04
2019-02-25T11:32:27.921Z,26.61
2019-02-25T11:33:27.943Z,25.29
2019-02-25T11:34:27.290Z,24.35
2019-02-25T11:35:27.281Z,23.98
2019-02-25T11:36:31.281Z,22.45
2019-02-25T11:37:27.781Z,21.80
2019-02-25T11:38:28.800Z,21.04
2019-02-25T11:39:29.986Z,21.22
2019-02-25T11:40:28.995Z,20.94
2019-02-25T11:41:29.624Z,20.76
2019-02-25T11:42:31.278Z,19.98
2019-02-25T11:43:28.281Z,19.61
2019-02-25T11:44:31.183Z,19.02
2019-02-25T11:45:28.290Z,19.03
2019-02-25T11:48:25.046Z,17.99
2019-02-25T11:49:00.053Z,17.81
2019-02-25T11:50:00.324Z,17.82
2019-02-25T11:51:28.488Z,17.34
2019-02-25T11:52:00.556Z,17.24
2019-02-25T11:53:31.555Z,16.96
2019-02-25T11:54:00.554Z,16.09
2019-02-25T11:55:23.491Z,15.32
2019-02-25T11:56:01.061Z,15.71
2019-02-25T11:57:01.054Z,16.00
2019-02-25T11:58:01.055Z,16.09
2019-02-25T11:59:05.055Z,16.57
2019-02-25T12:00:01.577Z,16.49
2019-02-25T12:01:01.557Z,16.01
2019-02-25T12:02:01.566Z,15.72
2019-02-25T12:03:02.078Z,15.72
2019-02-25T12:05:55.336Z,15.15
2019-02-25T12:06:55.342Z,15.44
2019-02-25T12:07:55.343Z,15.23
2019-02-25T12:09:19.871Z,15.14
2019-02-25T12:09:55.840Z,14.95
2019-02-25T12:10:55.845Z,14.58
2019-02-25T12:11:55.849Z,14.48
2019-02-25T12:13:17.342Z,14.09
2019-02-25T12:14:20.852Z,13.71
2019-02-25T12:15:17.345Z,14.20
2019-02-25T12:15:56.351Z,14.69
2019-02-25T12:18:28.120Z,14.29
2019-02-25T12:19:53.127Z,14.11
2019-02-25T12:20:28.126Z,13.82
2019-02-25T12:22:59.899Z,12.85
2019-02-25T12:23:59.908Z,12.27
2019-02-25T12:25:05.903Z,12.56
2019-02-25T12:26:00.406Z,12.37
2019-02-25T12:27:00.405Z,12.75
2019-02-25T12:28:00.404Z,12.93
2019-02-25T12:30:35.177Z,12.74
2019-02-25T12:31:32.185Z,12.55
2019-02-25T12:32:32.183Z,12.46
2019-02-25T12:33:53.683Z,12.55
2019-02-25T12:34:32.699Z,12.46
2019-02-25T12:35:36.681Z,12.55
2019-02-25T12:36:32.682Z,12.27
2019-02-25T12:37:33.184Z,12.48
2019-02-25T12:38:33.185Z,12.08
2019-02-25T12:39:33.183Z,12.76
2019-02-25T12:40:58.184Z,12.27
2019-02-25T12:41:54.684Z,12.65
2019-02-25T12:42:33.684Z,12.55
2019-02-25T12:43:33.683Z,12.75
2019-02-25T12:44:33.686Z,12.94
2019-02-25T12:47:08.967Z,13.81
2019-02-25T12:48:05.470Z,14.01
2019-02-25T12:49:05.971Z,14.11
2019-02-25T12:50:05.970Z,13.91
2019-02-25T12:51:05.971Z,13.62
2019-02-25T12:52:10.473Z,13.82
2019-02-25T12:53:28.404Z,13.92
2019-02-25T12:54:27.471Z,13.82
2019-02-25T12:55:05.831Z,13.15
2019-02-25T12:56:06.475Z,13.73
2019-02-25T12:57:07.903Z,13.64
2019-02-25T12:58:10.477Z,13.54
2019-02-25T12:59:08.409Z,13.74
2019-02-25T13:00:06.974Z,13.93
2019-02-25T13:01:06.586Z,14.23
2019-02-25T13:02:06.724Z,14.14
2019-02-25T13:03:12.407Z,13.75
2019-02-25T13:04:07.470Z,12.97
2019-02-25T13:05:07.970Z,12.96
2019-02-25T13:06:07.976Z,13.75
2019-02-25T13:07:07.341Z,14.14
2019-02-25T13:08:07.972Z,13.56
2019-02-25T13:09:32.471Z,14.04
2019-02-25T13:10:08.528Z,13.84
2019-02-25T13:11:08.468Z,14.03
2019-02-25T13:12:08.474Z,14.23
2019-02-25T13:16:15.492Z,14.60
2019-02-25T13:17:15.499Z,14.32
2019-02-25T13:18:15.499Z,13.83
2019-02-25T13:19:36.998Z,14.22
2019-02-25T13:20:18.524Z,14.60
2019-02-25T13:21:17.998Z,15.01
2019-02-25T13:22:37.006Z,14.82
2019-02-25T13:23:37.510Z,14.62
2019-02-25T13:24:18.496Z,14.05
2019-02-25T13:25:20.014Z,13.56
2019-02-25T13:27:48.162Z,13.94
2019-02-25T13:28:48.176Z,13.84
2019-02-25T13:29:49.595Z,14.04
2019-02-25T13:32:23.895Z,14.14
2019-02-25T13:33:23.902Z,14.04
2019-02-25T13:34:23.902Z,13.84
2019-02-25T13:37:22.118Z,14.79
2019-02-25T13:37:55.683Z,14.79
2019-02-25T13:38:55.683Z,14.70
2019-02-25T13:40:17.183Z,14.60
2019-02-25T13:41:17.183Z,15.19
2019-02-25T13:41:56.189Z,14.62
2019-02-25T13:42:59.683Z,14.71
2019-02-25T13:44:17.699Z,14.12
2019-02-25T13:45:17.690Z,13.34